AirNav   Air Wisconsin pilot careers
 
 1588 users online  

52I Gross Airport
Pinconning, Michigan, USA

GOING TO PINCONNING?


FAA INFORMATION EFFECTIVE 19 JULY 2018

Location

FAA Identifier: 52I
Lat/Long: 43-50-48.8000N / 084-00-41.0000W
43-50.813333N / 084-00.683333W
43.8468889 / -84.0113889
(estimated)
Elevation: 615 ft. / 187 m (estimated)
Variation: 06W (1985)
From city: 3 miles W of PINCONNING, MI
Time zone: UTC -4 (UTC -5 during Standard Time)
Zip code: 48650

Airport Operations

Airport use: Open to the public
Activation date: 11/1999
Control tower: no
ARTCC: CLEVELAND CENTER
FSS: LANSING FLIGHT SERVICE STATION
NOTAMs facility: LAN (NOTAM-D service available)
Attendance: IREG
FOR ARPT ATTENDANCE CALL 989-239-9878.
Wind indicator: yes
Segmented circle: no
Lights: ACTVT LIRL RY 09/27 - CTAF.

Airport Communications

CTAF: 122.9
WX AWOS-3 at IKW (15 nm SW): 119.525 (989-835-5841)
WX AWOS-3 at MBS (19 nm S): PHONE 989-695-2488

Nearby radio navigation aids

VOR radial/distance  VOR name  Freq  Var
MBSr012/19.1SAGINAW VOR/DME112.9003W
BXZr169/24.9WEST BRANCH VOR/DME113.2006W
MOPr072/34.2MOUNT PLEASANT VOR/DME110.6005W

Airport Services

Fuel available: FUEL AVBL EMERG ONLY.
Parking: tiedowns
Bottled oxygen: NONE
Bulk oxygen: NONE

Runway Information

Runway 9/27

Dimensions: 2565 x 100 ft. / 782 x 30 m
Surface: turf, in good condition
Runway edge lights: low intensity
Runway edge markings: 09/27 MKD WITH 3 FT YELLOW CONES.
RUNWAY 9  RUNWAY 27
Latitude: 43-50.813333N43-50.813333N
Longitude: 084-00.975000W084-00.391667W
Elevation: 615.0 ft.615.0 ft.
Traffic pattern: leftleft
Displaced threshold: no442 ft.
Obstructions: 66 ft. trees, 1320 ft. from runway, 20:1 slope to clear15 ft. road, 60 ft. from runway, 4:1 slope to clear
APCH RATIO AT DSPLCD THLD 12:1 OVER 40 FT TREE, 486 FT DST, 80 FT R.

Airport Ownership and Management from official FAA records

Ownership: Privately-owned
Owner: CARL A. GROSS INC
706 5TH ST, BOX 31
PINCONNING, MI 48650
Phone 989-879-5048
Manager: JAMES M. KLEIN
706 5TH ST BOX 31
PINCONNING, MI 48650
Phone 989-708-7583
ASST AMGR MICHAEL HARTMAN 989-239-9878.

Airport Operational Statistics

Aircraft based on the field: 31
Single engine airplanes: 30
Ultralights: 1
    
Aircraft operations: avg 34/week *
56% local general aviation
44% transient general aviation
* for 12-month period ending 31 December 2014

Additional Remarks

FOR SNOW REMOVAL COND CALL 989-708-7583.
BLDGS IN PRIM SFC EAST END, 70 FT N; 93 FT S OF CNTRLN; ALSO 4 FT FENCE ALONG RWY EDGE, FIRST 140 FT, S SIDE; +15-45 FT TREES 95 FT S OF CNTRLN WEST END.
AG OPS SUMMER MONTHS.
-6 FT DITCH 15 FT WEST OF RY 09.
ULTRA LIGHTS USE 500' TPA.

Instrument Procedures

There are no published instrument procedures at 52I.

Some nearby airports with instrument procedures:

KIKW - Jack Barstow Airport (15 nm SW)
3CM - James Clements Municipal Airport (19 nm S)
KMBS - MBS International Airport (19 nm S)
KGDW - Gladwin Zettel Memorial Airport (21 nm W)
Y31 - West Branch Community Airport (25 nm N)
 
Loc | Ops | Rwys | IFR | FBO | Links
Com | Nav | Svcs | Stats | Notes

City of Findlay
 
Area around 52I (Gross Airport)
 
Road maps at: MapQuest Bing Google
 
Aerial photo
WARNING: Photo may not be current or correct
Aerial photo of 52I (Gross Airport)
Photo by: Tom Taylor, Essexville, MI

Do you have a better or more recent aerial photo of Gross Airport that you would like to share? If so, please send us your photo.

 
Sectional chart

 
Airport distance calculator
Flying to Gross Airport? Find the distance to fly.

From to 52I

Sunrise and sunset
Times for 19-Jul-2018
 Local
(UTC-4)
 Zulu
(UTC)
Morning civil twilight05:3809:38
Sunrise06:1210:12
Sunset21:1201:12
Evening civil twilight21:4701:47

Current date and time
Zulu (UTC)  19-Jul-2018 17:41:36
Local (UTC-4)  19-Jul-2018 13:41:36
 
METAR
KIKW 
15nm SW 
191715Z AUTO 14008KT 10SM SCT050 27/14 A3003 RMK AO2 T02660140
KMBS 
19nm S 
191653Z 22008KT 10SM CLR 27/13 A3004 RMK AO2 SLP171 T02720133
KY31 
25nm N 
191715Z AUTO 21004KT 10SM CLR 26/13 A3002 RMK AO2 T02580126
KHYX 
26nm S 
191715Z AUTO 18004KT 10SM SCT060 27/11 A3003 RMK AO2
TAF
KMBS 
19nm S 
191120Z 1912/2012 VRB03KT P6SM SKC FM191700 16006KT P6SM SCT050 FM200000 13006KT P6SM SCT250
NOTAMs
Click for the latest NOTAMs
NOTAMs are issued by the DoD/FAA and will open in a separate window not controlled by AirNav.

 

 
 

Would you like to see your business listed on this page?

 If your business provides an interesting product or service to pilots, flight crews, aircraft, or users of the Gross Airport, you should consider listing it here.  To start the listing process, click on the button below
 
Add a business
 

Other Pages about Gross Airport

Page from the Michigan Airport Directory (PDF)
 
Update a link
 
Copyright © AirNav, LLC. All rights reserved. Privacy Policy  Contact